createdAt,value
2019-03-29T00:00:22.767Z,7.70
2019-03-29T00:02:51.221Z,7.70
2019-03-29T00:05:19.713Z,7.60
2019-03-29T00:07:48.154Z,7.60
2019-03-29T00:10:16.625Z,7.40
2019-03-29T00:12:45.103Z,7.60
2019-03-29T00:15:13.549Z,7.70
2019-03-29T00:17:42.392Z,7.90
2019-03-29T00:20:11.368Z,7.70
2019-03-29T00:22:40.150Z,7.60
2019-03-29T00:25:08.713Z,7.60
2019-03-29T00:27:37.175Z,7.60
2019-03-29T00:30:06.408Z,7.70
2019-03-29T00:32:34.870Z,7.80
2019-03-29T00:35:03.524Z,7.90
2019-03-29T00:37:31.985Z,7.80
2019-03-29T00:40:00.438Z,8.00
2019-03-29T00:42:28.915Z,8.10
2019-03-29T00:44:57.376Z,8.00
2019-03-29T00:47:25.856Z,8.10
2019-03-29T00:49:54.335Z,8.10
2019-03-29T00:52:22.821Z,8.00
2019-03-29T00:54:51.261Z,8.00
2019-03-29T00:57:20.036Z,8.00
2019-03-29T00:59:48.516Z,8.00
2019-03-29T01:02:16.969Z,8.00
2019-03-29T01:04:45.784Z,7.90
2019-03-29T01:07:14.571Z,7.90
2019-03-29T01:09:43.049Z,7.90
2019-03-29T01:12:11.869Z,7.90
2019-03-29T01:14:40.389Z,7.80
2019-03-29T01:17:08.865Z,7.80
2019-03-29T01:19:37.342Z,7.80
2019-03-29T01:22:06.029Z,7.80
2019-03-29T01:24:34.738Z,7.70
2019-03-29T01:27:03.559Z,7.60
2019-03-29T01:29:32.111Z,7.60
2019-03-29T01:32:00.924Z,7.60
2019-03-29T01:34:29.413Z,7.60
2019-03-29T01:36:57.891Z,7.70
2019-03-29T01:39:26.363Z,7.60
2019-03-29T01:41:54.843Z,7.50
2019-03-29T01:44:23.321Z,7.50
2019-03-29T01:46:51.803Z,7.40
2019-03-29T01:49:20.342Z,7.40
2019-03-29T01:51:48.949Z,7.50
2019-03-29T01:54:17.420Z,7.50
2019-03-29T01:56:46.042Z,7.60
2019-03-29T01:59:14.613Z,7.50
2019-03-29T02:01:43.095Z,7.60
2019-03-29T02:04:11.917Z,7.50
2019-03-29T02:06:40.443Z,7.50
2019-03-29T02:09:08.927Z,7.50
2019-03-29T02:11:37.374Z,7.40
2019-03-29T02:14:05.869Z,7.40
2019-03-29T02:16:34.382Z,7.30
2019-03-29T02:19:02.863Z,7.30
2019-03-29T02:21:31.598Z,7.20
2019-03-29T02:24:00.080Z,7.30
2019-03-29T02:26:28.611Z,7.20
2019-03-29T02:28:57.165Z,7.20
2019-03-29T02:31:26.394Z,7.20
2019-03-29T02:33:55.934Z,7.20
2019-03-29T02:36:24.546Z,7.20
2019-03-29T02:38:55.850Z,7.20
2019-03-29T02:41:23.199Z,7.20
2019-03-29T02:43:51.747Z,7.20
2019-03-29T02:46:20.312Z,7.10
2019-03-29T02:48:49.086Z,7.10
2019-03-29T02:51:17.576Z,7.10
2019-03-29T02:53:46.117Z,7.10
2019-03-29T02:56:14.619Z,7.00
2019-03-29T02:58:43.079Z,7.00
2019-03-29T03:01:11.607Z,7.00
2019-03-29T03:03:40.101Z,7.00
2019-03-29T03:06:08.579Z,7.00
2019-03-29T03:08:37.073Z,6.90
2019-03-29T03:11:05.899Z,6.90
2019-03-29T03:13:34.621Z,6.90
2019-03-29T03:16:03.261Z,6.90
2019-03-29T03:18:31.791Z,6.90
2019-03-29T03:21:00.271Z,6.90
2019-03-29T03:23:28.759Z,6.80
2019-03-29T03:25:57.231Z,6.80
2019-03-29T03:28:25.789Z,6.80
2019-03-29T03:30:54.256Z,6.80
2019-03-29T03:33:22.740Z,6.70
2019-03-29T03:35:51.194Z,6.70
2019-03-29T03:38:19.682Z,6.70
2019-03-29T03:40:48.133Z,6.80
2019-03-29T03:43:16.610Z,6.80
2019-03-29T03:45:45.339Z,6.70
2019-03-29T03:48:13.820Z,6.70
2019-03-29T03:50:42.722Z,6.70
2019-03-29T03:53:11.930Z,6.60
2019-03-29T03:55:41.814Z,6.60
2019-03-29T03:58:11.720Z,6.60
2019-03-29T04:00:54.868Z,6.60
2019-03-29T04:03:24.038Z,6.60
2019-03-29T04:05:52.729Z,6.50
2019-03-29T04:08:21.385Z,6.60
2019-03-29T04:10:49.970Z,6.50
2019-03-29T04:13:18.509Z,6.60
2019-03-29T04:15:47.131Z,6.50
2019-03-29T04:18:16.546Z,6.50
2019-03-29T04:20:45.347Z,6.50
2019-03-29T04:23:13.840Z,6.50
2019-03-29T04:25:42.378Z,6.50
2019-03-29T04:28:10.873Z,6.50
2019-03-29T04:30:39.396Z,6.40
2019-03-29T04:33:11.069Z,6.40
2019-03-29T04:35:38.177Z,6.30
2019-03-29T04:38:06.703Z,6.30
2019-03-29T04:40:35.325Z,6.40
2019-03-29T04:43:03.790Z,6.40
2019-03-29T04:45:32.358Z,6.40
2019-03-29T04:48:00.825Z,6.40
2019-03-29T04:50:29.308Z,6.50
2019-03-29T04:52:58.057Z,6.50
2019-03-29T04:55:26.603Z,6.40
2019-03-29T04:57:55.083Z,6.40
2019-03-29T05:00:23.572Z,6.30
2019-03-29T05:02:52.104Z,6.40
2019-03-29T05:05:20.601Z,6.50
2019-03-29T05:07:49.062Z,6.40
2019-03-29T05:10:21.466Z,6.40
2019-03-29T05:12:47.748Z,6.40
2019-03-29T05:15:16.373Z,6.50
2019-03-29T05:17:44.853Z,6.50
2019-03-29T05:20:13.450Z,6.50
2019-03-29T05:22:41.944Z,6.50
2019-03-29T05:25:10.560Z,6.40
2019-03-29T05:27:39.040Z,6.50
2019-03-29T05:30:08.376Z,6.40
2019-03-29T05:32:36.920Z,6.30
2019-03-29T05:35:06.624Z,6.30
2019-03-29T05:37:35.121Z,6.40
2019-03-29T05:40:04.505Z,6.40
2019-03-29T05:42:33.324Z,6.30
2019-03-29T05:45:01.792Z,6.20
2019-03-29T05:47:30.594Z,6.30
2019-03-29T05:49:59.503Z,6.30
2019-03-29T05:52:28.018Z,6.30
2019-03-29T05:54:56.479Z,6.30
2019-03-29T05:57:24.964Z,6.30
2019-03-29T05:59:53.505Z,6.30
2019-03-29T06:02:22.299Z,6.30
2019-03-29T06:04:50.793Z,6.30
2019-03-29T06:07:19.255Z,6.30
2019-03-29T06:09:47.725Z,6.30
2019-03-29T06:12:16.543Z,6.30
2019-03-29T06:14:45.007Z,6.30
2019-03-29T06:17:13.811Z,6.20
2019-03-29T06:19:42.261Z,6.30
2019-03-29T06:22:10.722Z,6.30
2019-03-29T06:24:39.213Z,6.20
2019-03-29T06:27:07.702Z,6.20
2019-03-29T06:29:36.196Z,6.20
2019-03-29T06:32:04.655Z,6.20
2019-03-29T06:34:33.172Z,6.20
2019-03-29T06:37:01.927Z,6.20
2019-03-29T06:39:31.005Z,6.20
2019-03-29T06:41:59.480Z,6.20
2019-03-29T06:44:27.959Z,6.20
2019-03-29T06:46:56.423Z,6.20
2019-03-29T06:49:24.911Z,6.20
2019-03-29T06:51:53.372Z,6.30
2019-03-29T06:54:21.842Z,6.40
2019-03-29T06:56:50.372Z,6.40
2019-03-29T06:59:18.848Z,6.60
2019-03-29T07:01:47.393Z,6.60
2019-03-29T07:04:15.847Z,6.70
2019-03-29T07:06:44.335Z,6.80
2019-03-29T07:09:12.821Z,6.90
2019-03-29T07:11:41.280Z,7.10
2019-03-29T07:14:09.788Z,7.20
2019-03-29T07:16:38.248Z,7.20
2019-03-29T07:19:06.700Z,7.20
2019-03-29T07:21:35.169Z,7.40
2019-03-29T07:24:03.631Z,7.40
2019-03-29T07:26:32.097Z,7.50
2019-03-29T07:29:00.576Z,7.50
2019-03-29T07:31:29.083Z,7.60
2019-03-29T07:33:57.543Z,7.70
2019-03-29T07:36:25.996Z,7.80
2019-03-29T07:38:54.479Z,8.70
2019-03-29T07:41:31.787Z,8.10
2019-03-29T07:43:53.148Z,8.10
2019-03-29T07:46:21.642Z,8.20
2019-03-29T07:48:50.103Z,8.40
2019-03-29T07:51:18.586Z,8.40
2019-03-29T07:53:47.047Z,8.40
2019-03-29T07:56:15.531Z,8.50
2019-03-29T07:58:44.267Z,8.50
2019-03-29T08:01:12.786Z,8.50
2019-03-29T08:03:41.285Z,8.60
2019-03-29T08:06:09.764Z,8.70
2019-03-29T08:08:38.227Z,8.80
2019-03-29T08:11:07.029Z,8.90
2019-03-29T08:13:35.520Z,9.00
2019-03-29T08:16:06.599Z,9.00
2019-03-29T08:18:34.423Z,9.00
2019-03-29T08:21:03.239Z,9.10
2019-03-29T08:23:31.709Z,9.20
2019-03-29T08:26:00.188Z,9.40
2019-03-29T08:28:28.637Z,9.50
2019-03-29T08:30:57.109Z,9.60
2019-03-29T08:33:25.577Z,9.60
2019-03-29T08:35:54.053Z,9.80
2019-03-29T08:38:22.518Z,9.80
2019-03-29T08:40:50.985Z,9.90
2019-03-29T08:43:19.530Z,9.70
2019-03-29T08:45:48.002Z,9.90
2019-03-29T08:48:16.545Z,9.90
2019-03-29T08:50:45.065Z,9.90
2019-03-29T08:53:13.543Z,9.90
2019-03-29T08:55:45.881Z,9.90
2019-03-29T08:58:12.521Z,10.00
2019-03-29T09:00:41.014Z,10.00
2019-03-29T09:03:09.488Z,9.80
2019-03-29T09:05:39.313Z,9.90
2019-03-29T09:08:08.001Z,10.10
2019-03-29T09:10:36.534Z,10.10
2019-03-29T09:13:05.167Z,10.10
2019-03-29T09:15:33.646Z,10.00
2019-03-29T09:18:02.389Z,9.80
2019-03-29T09:20:34.185Z,10.10
2019-03-29T09:23:01.405Z,10.10
2019-03-29T09:25:29.856Z,10.20
2019-03-29T09:27:58.679Z,10.20
2019-03-29T09:30:27.392Z,10.10
2019-03-29T09:32:55.886Z,10.20
2019-03-29T09:35:24.354Z,10.40
2019-03-29T09:37:56.288Z,10.50
2019-03-29T09:40:23.089Z,10.60
2019-03-29T09:43:06.145Z,10.60
2019-03-29T09:45:22.095Z,10.60
2019-03-29T09:47:50.592Z,10.80
2019-03-29T09:50:21.323Z,10.90
2019-03-29T09:52:51.404Z,11.10
2019-03-29T09:55:19.717Z,11.20
2019-03-29T09:57:48.556Z,11.30
2019-03-29T10:00:22.965Z,11.30
2019-03-29T10:02:49.907Z,11.40
2019-03-29T10:05:20.240Z,11.40
2019-03-29T10:07:49.041Z,11.60
2019-03-29T10:10:17.659Z,11.60
2019-03-29T10:12:46.125Z,11.70
2019-03-29T10:15:14.643Z,11.80
2019-03-29T10:17:43.139Z,11.80
2019-03-29T10:20:11.944Z,11.80
2019-03-29T10:22:40.458Z,11.80
2019-03-29T10:25:19.300Z,11.90
2019-03-29T10:27:39.974Z,12.00
2019-03-29T10:30:09.593Z,12.10
2019-03-29T10:32:38.143Z,12.00
2019-03-29T10:35:07.561Z,11.90
2019-03-29T10:37:36.034Z,11.90
2019-03-29T10:40:06.638Z,11.90
2019-03-29T10:42:35.105Z,11.90
2019-03-29T10:45:03.813Z,12.00
2019-03-29T10:47:43.257Z,12.00
2019-03-29T10:50:02.582Z,12.00
2019-03-29T10:52:31.039Z,11.80
2019-03-29T10:54:59.541Z,11.80
2019-03-29T10:57:27.995Z,11.80
2019-03-29T10:59:56.470Z,11.80
2019-03-29T11:02:24.952Z,11.90
2019-03-29T11:04:53.411Z,11.80
2019-03-29T11:07:22.143Z,11.90
2019-03-29T11:09:50.621Z,11.90
2019-03-29T11:12:19.189Z,11.90
2019-03-29T11:14:47.653Z,11.70
2019-03-29T11:17:16.129Z,11.70
2019-03-29T11:19:44.593Z,11.60
2019-03-29T11:22:13.055Z,12.00
2019-03-29T11:24:41.795Z,12.20
2019-03-29T11:27:10.255Z,12.20
2019-03-29T11:29:38.753Z,12.40
2019-03-29T11:32:07.361Z,12.40
2019-03-29T11:34:35.856Z,12.60
2019-03-29T11:37:04.319Z,12.50
2019-03-29T11:39:32.817Z,12.60
2019-03-29T11:42:03.511Z,12.50
2019-03-29T11:44:31.608Z,12.60
2019-03-29T11:47:00.074Z,12.60
2019-03-29T11:49:28.550Z,12.80
2019-03-29T11:51:57.018Z,13.00
2019-03-29T11:54:25.553Z,13.00
2019-03-29T11:56:54.031Z,13.20
2019-03-29T11:59:22.905Z,13.20
2019-03-29T12:01:51.390Z,13.10
2019-03-29T12:04:19.843Z,13.20
2019-03-29T12:06:48.337Z,13.10
2019-03-29T12:09:17.121Z,13.00
2019-03-29T12:11:45.920Z,13.10
2019-03-29T12:14:14.461Z,13.30
2019-03-29T12:16:43.305Z,13.40
2019-03-29T12:19:11.769Z,13.30
2019-03-29T12:21:40.563Z,13.20
2019-03-29T12:24:09.044Z,13.20
2019-03-29T12:26:37.935Z,13.20
2019-03-29T12:29:06.473Z,13.40
2019-03-29T12:31:34.966Z,13.40
2019-03-29T12:34:03.687Z,13.60
2019-03-29T12:36:32.151Z,13.60
2019-03-29T12:39:00.625Z,13.70
2019-03-29T12:41:29.091Z,13.80
2019-03-29T12:43:57.556Z,13.70
2019-03-29T12:46:26.042Z,13.80
2019-03-29T12:48:54.513Z,13.90
2019-03-29T12:51:23.268Z,13.90
2019-03-29T12:53:52.059Z,13.80
2019-03-29T12:56:20.601Z,13.80
2019-03-29T12:58:49.326Z,13.80
2019-03-29T13:01:17.866Z,13.80
2019-03-29T13:03:46.340Z,13.80
2019-03-29T13:06:14.829Z,13.80
2019-03-29T13:08:43.287Z,13.90
2019-03-29T13:11:11.770Z,14.00
2019-03-29T13:13:40.521Z,14.00
2019-03-29T13:16:09.320Z,14.00
2019-03-29T13:18:37.803Z,14.00
2019-03-29T13:21:06.589Z,14.00
2019-03-29T13:23:35.139Z,14.00
2019-03-29T13:26:03.666Z,14.00
2019-03-29T13:28:32.530Z,14.10
2019-03-29T13:31:01.068Z,14.10
2019-03-29T13:33:29.556Z,14.10
2019-03-29T13:35:58.401Z,14.20
2019-03-29T13:38:26.869Z,14.30
2019-03-29T13:40:55.352Z,14.30
2019-03-29T13:43:23.800Z,14.20
2019-03-29T13:45:52.268Z,14.20
2019-03-29T13:48:20.741Z,14.30
2019-03-29T13:50:49.221Z,14.20
2019-03-29T13:53:17.692Z,14.20
2019-03-29T13:55:46.523Z,14.30
2019-03-29T13:58:15.004Z,14.30
2019-03-29T14:00:43.501Z,14.30
2019-03-29T14:03:12.046Z,14.40
2019-03-29T14:05:40.527Z,14.40
2019-03-29T14:08:08.982Z,14.40
2019-03-29T14:10:37.471Z,14.40
2019-03-29T14:13:05.935Z,14.50
2019-03-29T14:15:34.428Z,14.50
2019-03-29T14:18:02.888Z,14.60
2019-03-29T14:20:33.092Z,14.60
2019-03-29T14:23:02.897Z,14.50
2019-03-29T14:25:31.363Z,14.50
2019-03-29T14:27:59.862Z,14.60
2019-03-29T14:30:28.309Z,14.60
2019-03-29T14:32:56.789Z,14.60
2019-03-29T14:35:25.542Z,14.90
2019-03-29T14:37:54.003Z,14.80
2019-03-29T14:40:22.545Z,14.80
2019-03-29T14:42:51.039Z,14.80
2019-03-29T14:45:19.568Z,14.70
2019-03-29T14:47:48.029Z,14.60
2019-03-29T14:50:16.952Z,14.60
2019-03-29T14:52:45.435Z,14.70
2019-03-29T14:55:13.967Z,14.70
2019-03-29T14:57:42.445Z,14.80
2019-03-29T15:00:12.851Z,14.70
2019-03-29T15:02:41.381Z,14.60
2019-03-29T15:05:09.946Z,14.50
2019-03-29T15:07:38.937Z,14.50
2019-03-29T15:10:09.044Z,14.40
2019-03-29T15:12:37.507Z,14.50
2019-03-29T15:15:07.413Z,14.40
2019-03-29T15:17:35.975Z,14.40
2019-03-29T15:20:05.966Z,14.30
2019-03-29T15:22:34.428Z,14.30
2019-03-29T15:25:02.990Z,14.30
2019-03-29T15:27:31.487Z,14.30
2019-03-29T15:29:59.963Z,14.30
2019-03-29T15:32:28.419Z,14.30
2019-03-29T15:34:56.903Z,14.40
2019-03-29T15:37:25.370Z,14.40
2019-03-29T15:39:53.903Z,14.30
2019-03-29T15:42:22.415Z,14.20
2019-03-29T15:44:50.929Z,14.20
2019-03-29T15:47:19.416Z,14.30
2019-03-29T15:49:55.808Z,14.20
2019-03-29T15:52:18.081Z,14.00
2019-03-29T15:54:46.541Z,13.90
2019-03-29T15:57:15.040Z,13.90
2019-03-29T15:59:43.573Z,13.80
2019-03-29T16:02:12.046Z,13.80
2019-03-29T16:04:40.530Z,13.70
2019-03-29T16:07:09.001Z,13.70
2019-03-29T16:09:37.726Z,13.60
2019-03-29T16:12:06.466Z,13.60
2019-03-29T16:14:34.946Z,13.50
2019-03-29T16:17:03.411Z,13.40
2019-03-29T16:19:31.909Z,13.40
2019-03-29T16:22:00.353Z,13.40
2019-03-29T16:24:28.819Z,13.30
2019-03-29T16:26:57.299Z,13.30
2019-03-29T16:29:25.793Z,13.30
2019-03-29T16:31:54.333Z,13.20
2019-03-29T16:34:22.899Z,13.10
2019-03-29T16:36:51.361Z,13.10
2019-03-29T16:39:19.812Z,13.00
2019-03-29T16:41:48.303Z,13.00
2019-03-29T16:44:17.040Z,13.00
2019-03-29T16:46:45.518Z,12.90
2019-03-29T16:49:14.018Z,12.90
2019-03-29T16:51:42.549Z,12.80
2019-03-29T16:54:11.006Z,12.80
2019-03-29T16:56:39.500Z,12.80
2019-03-29T16:59:07.946Z,12.80
2019-03-29T17:01:36.432Z,12.70
2019-03-29T17:04:05.263Z,12.60
2019-03-29T17:06:34.005Z,12.60
2019-03-29T17:09:03.635Z,12.50
2019-03-29T17:11:32.126Z,12.50
2019-03-29T17:14:00.867Z,12.50
2019-03-29T17:16:30.562Z,12.50
2019-03-29T17:18:59.438Z,12.50
2019-03-29T17:21:27.899Z,12.40
2019-03-29T17:23:56.743Z,12.40
2019-03-29T17:26:25.210Z,12.40
2019-03-29T17:28:53.702Z,12.40
2019-03-29T17:31:22.145Z,12.30
2019-03-29T17:33:50.640Z,12.40
2019-03-29T17:36:19.109Z,12.30
2019-03-29T17:38:48.132Z,12.20
2019-03-29T17:41:16.735Z,12.20
2019-03-29T17:43:45.239Z,12.20
2019-03-29T17:46:16.772Z,12.20
2019-03-29T17:48:43.882Z,12.10
2019-03-29T17:51:12.708Z,12.00
2019-03-29T17:53:41.186Z,11.90
2019-03-29T17:56:09.683Z,11.90
2019-03-29T17:58:38.147Z,11.90
2019-03-29T18:01:06.607Z,11.90
2019-03-29T18:03:35.100Z,11.70
2019-03-29T18:06:03.736Z,11.70
2019-03-29T18:08:32.258Z,11.60
2019-03-29T18:11:00.811Z,11.50
2019-03-29T18:13:29.262Z,11.50
2019-03-29T18:15:57.737Z,11.40
2019-03-29T18:18:26.225Z,11.30
2019-03-29T18:20:54.677Z,11.30
2019-03-29T18:23:24.923Z,11.30
2019-03-29T18:25:53.817Z,11.20
2019-03-29T18:28:22.306Z,11.20
2019-03-29T18:30:50.762Z,11.40
2019-03-29T18:33:20.531Z,11.30
2019-03-29T18:35:49.011Z,11.20
2019-03-29T18:38:17.477Z,11.20
2019-03-29T18:40:45.985Z,11.10
2019-03-29T18:43:14.533Z,11.00
2019-03-29T18:45:43.025Z,11.10
2019-03-29T18:48:11.500Z,11.20
2019-03-29T18:50:40.069Z,11.00
2019-03-29T18:53:08.602Z,11.10
2019-03-29T18:55:37.091Z,11.20
2019-03-29T18:58:05.966Z,11.10
2019-03-29T19:00:35.354Z,11.10
2019-03-29T19:03:04.177Z,10.80
2019-03-29T19:05:32.819Z,10.80
2019-03-29T19:08:01.350Z,10.80
2019-03-29T19:10:29.959Z,10.70
2019-03-29T19:12:58.527Z,10.50
2019-03-29T19:15:27.381Z,10.40
2019-03-29T19:17:55.849Z,10.50
2019-03-29T19:20:27.660Z,10.30
2019-03-29T19:22:54.595Z,10.30
2019-03-29T19:25:23.145Z,10.30
2019-03-29T19:27:51.646Z,10.10
2019-03-29T19:30:20.377Z,10.00
2019-03-29T19:32:48.855Z,9.90
2019-03-29T19:35:17.701Z,9.90
2019-03-29T19:37:46.174Z,9.80
2019-03-29T19:40:14.771Z,9.90
2019-03-29T19:42:43.267Z,9.80
2019-03-29T19:45:12.269Z,9.70
2019-03-29T19:47:41.063Z,9.70
2019-03-29T19:50:09.875Z,9.90
2019-03-29T19:52:38.352Z,10.00
2019-03-29T19:55:07.082Z,10.00
2019-03-29T19:57:35.571Z,10.00
2019-03-29T20:00:09.799Z,10.10
2019-03-29T20:02:38.313Z,10.00
2019-03-29T20:05:09.912Z,9.90
2019-03-29T20:07:38.663Z,9.90
2019-03-29T20:10:08.461Z,10.00
2019-03-29T20:12:36.999Z,9.90
2019-03-29T20:15:08.336Z,10.00
2019-03-29T20:17:36.825Z,10.10
2019-03-29T20:20:08.339Z,10.10
2019-03-29T20:22:36.822Z,10.20
2019-03-29T20:25:06.154Z,10.10
2019-03-29T20:27:34.731Z,10.10
2019-03-29T20:30:03.893Z,10.00
2019-03-29T20:32:32.397Z,9.90
2019-03-29T20:35:00.872Z,9.90
2019-03-29T20:37:29.347Z,9.80
2019-03-29T20:39:57.967Z,9.80
2019-03-29T20:42:26.420Z,9.70
2019-03-29T20:44:54.898Z,9.60
2019-03-29T20:47:23.368Z,9.60
2019-03-29T20:49:52.224Z,9.60
2019-03-29T20:52:20.695Z,9.60
2019-03-29T20:54:49.179Z,9.50
2019-03-29T20:57:17.659Z,9.60
2019-03-29T20:59:46.147Z,9.50
2019-03-29T21:02:14.601Z,9.50
2019-03-29T21:04:43.092Z,9.50
2019-03-29T21:07:11.569Z,9.50
2019-03-29T21:09:40.039Z,9.50
2019-03-29T21:12:08.519Z,9.50
2019-03-29T21:14:37.000Z,9.50
2019-03-29T21:17:05.479Z,9.40
2019-03-29T21:19:33.967Z,9.40
2019-03-29T21:22:02.495Z,9.40
2019-03-29T21:24:30.979Z,9.40
2019-03-29T21:26:59.461Z,9.30
2019-03-29T21:29:27.949Z,9.30
2019-03-29T21:31:56.407Z,9.30
2019-03-29T21:34:25.251Z,9.20
2019-03-29T21:36:53.715Z,9.20
2019-03-29T21:39:22.258Z,9.10
2019-03-29T21:41:50.997Z,9.10
2019-03-29T21:44:19.499Z,9.10
2019-03-29T21:46:47.977Z,9.10
2019-03-29T21:49:16.434Z,9.10
2019-03-29T21:51:45.552Z,9.10
2019-03-29T21:54:14.337Z,9.00
2019-03-29T21:56:42.807Z,9.00
2019-03-29T21:59:11.379Z,9.00
2019-03-29T22:01:39.843Z,9.00
2019-03-29T22:04:08.320Z,9.00
2019-03-29T22:06:37.151Z,9.00
2019-03-29T22:09:07.658Z,9.00
2019-03-29T22:11:36.139Z,9.00
2019-03-29T22:14:05.058Z,8.90
2019-03-29T22:16:33.566Z,8.90
2019-03-29T22:19:02.035Z,8.90
2019-03-29T22:21:30.513Z,8.90
2019-03-29T22:23:58.989Z,8.90
2019-03-29T22:26:27.502Z,8.80
2019-03-29T22:28:56.005Z,8.80
2019-03-29T22:31:24.730Z,8.80
2019-03-29T22:33:53.533Z,8.80
2019-03-29T22:36:21.995Z,8.80
2019-03-29T22:38:50.463Z,8.90
2019-03-29T22:41:18.940Z,8.90
2019-03-29T22:43:47.438Z,8.80
2019-03-29T22:46:15.905Z,8.70
2019-03-29T22:48:52.265Z,8.70
2019-03-29T22:51:14.590Z,8.70
2019-03-29T22:53:43.062Z,8.60
2019-03-29T22:56:11.793Z,8.60
2019-03-29T22:58:40.275Z,8.40
2019-03-29T23:01:08.934Z,8.30
2019-03-29T23:03:37.386Z,8.40
2019-03-29T23:06:05.933Z,8.50
2019-03-29T23:08:34.399Z,8.40
2019-03-29T23:11:02.974Z,8.70
2019-03-29T23:13:31.801Z,8.90
2019-03-29T23:16:00.287Z,9.00
2019-03-29T23:18:28.748Z,9.00
2019-03-29T23:20:57.231Z,9.00
2019-03-29T23:23:25.699Z,8.90
2019-03-29T23:25:54.183Z,8.90
2019-03-29T23:28:22.629Z,8.90
2019-03-29T23:30:51.121Z,8.90
2019-03-29T23:33:19.583Z,8.90
2019-03-29T23:35:48.036Z,8.90
2019-03-29T23:38:16.531Z,8.80
2019-03-29T23:40:44.982Z,8.80
2019-03-29T23:43:13.463Z,8.80
2019-03-29T23:45:41.947Z,8.80
2019-03-29T23:48:10.426Z,8.80
2019-03-29T23:50:38.911Z,8.80
2019-03-29T23:53:07.375Z,8.80
2019-03-29T23:55:36.115Z,8.90
2019-03-29T23:58:04.573Z,8.80
